Time;durP1;ratioP1;P1;durP2;ratioP2;P2;SDS_P1;SDS_P2;PMS_P1;PMS_P2;Temp;Humidity;BMP_temperature;BMP_pressure;BME280_temperature;BME280_humidity;BME280_pressure;Samples;Min_cycle;Max_cycle;Signal;HPM_P1;HPM_P2
2024/01/19 00:01:54;;;;;;;14.23;9.40;;;;;;;0.94;nan;99222.66;4990883;28;20207;-77
2024/01/19 00:04:19;;;;;;;16.70;10.10;;;;;;;0.92;nan;99227.88;4987476;28;20290;-78
2024/01/19 00:06:45;;;;;;;16.27;8.40;;;;;;;0.89;nan;99230.53;4982418;28;20428;-80
2024/01/19 00:09:10;;;;;;;19.25;12.77;;;;;;;0.86;nan;99230.63;4977252;28;20547;-79
2024/01/19 00:11:36;;;;;;;16.50;10.50;;;;;;;0.86;nan;99243.56;4979290;28;20321;-80
2024/01/19 00:14:01;;;;;;;11.30;8.30;;;;;;;0.88;nan;99236.63;4980818;28;20242;-79
2024/01/19 00:16:27;;;;;;;17.60;9.73;;;;;;;0.88;nan;99244.38;4977938;28;20273;-80
2024/01/19 00:18:52;;;;;;;15.77;10.33;;;;;;;0.87;nan;99253.88;4978998;28;20233;-79
2024/01/19 00:21:18;;;;;;;13.60;9.33;;;;;;;0.86;nan;99259.94;4977908;28;20335;-80
2024/01/19 00:23:43;;;;;;;15.50;8.90;;;;;;;0.84;nan;99261.72;4977607;28;20214;-77
2024/01/19 00:26:10;;;;;;;17.47;10.30;;;;;;;0.84;nan;99260.88;4979121;28;20254;-80
2024/01/19 00:28:36;;;;;;;13.10;8.73;;;;;;;0.84;nan;99273.81;5037802;22;20522;-83
2024/01/19 00:31:01;;;;;;;13.77;8.30;;;;;;;0.83;nan;99272.09;4958384;28;21010;-84
2024/01/19 00:33:26;;;;;;;14.07;7.90;;;;;;;0.82;nan;99273.00;4976613;28;20207;-84
2024/01/19 00:35:52;;;;;;;10.70;8.43;;;;;;;0.76;nan;99281.78;4980411;28;20238;-83
2024/01/19 00:38:17;;;;;;;11.47;8.90;;;;;;;0.72;nan;99277.59;4979407;28;20369;-85
2024/01/19 00:40:43;;;;;;;17.67;8.47;;;;;;;0.67;nan;99284.63;4979748;28;20223;-82
2024/01/19 00:43:09;;;;;;;14.73;8.98;;;;;;;0.64;nan;99293.31;4980398;28;20575;-83
2024/01/19 00:45:35;;;;;;;16.07;8.73;;;;;;;0.62;nan;99295.09;4981408;28;20218;-83
2024/01/19 00:48:01;;;;;;;14.70;9.77;;;;;;;0.59;nan;99310.69;4980831;28;20213;-84
2024/01/19 00:50:26;;;;;;;16.57;8.50;;;;;;;0.57;nan;99299.56;4981130;28;20635;-85
2024/01/19 00:52:52;;;;;;;14.37;9.97;;;;;;;0.57;nan;99315.06;4980454;28;20703;-85
2024/01/19 00:55:17;;;;;;;14.13;8.23;;;;;;;0.59;nan;99310.69;4981556;28;20291;-86
2024/01/19 00:57:43;;;;;;;15.60;10.50;;;;;;;0.58;nan;99314.16;4980934;28;20757;-85
2024/01/19 01:00:09;;;;;;;15.27;9.27;;;;;;;0.59;nan;99325.34;4980645;28;20248;-82
2024/01/19 01:02:34;;;;;;;13.73;9.15;;;;;;;0.59;nan;99328.75;4978602;28;20266;-82
2024/01/19 01:05:00;;;;;;;15.30;8.10;;;;;;;0.58;nan;99334.84;4978045;28;20250;-83
2024/01/19 01:07:25;;;;;;;17.90;10.30;;;;;;;0.55;nan;99334.94;4978685;28;20213;-82
2024/01/19 01:09:51;;;;;;;16.57;8.30;;;;;;;0.52;nan;99336.75;4977466;28;20221;-83
2024/01/19 01:12:16;;;;;;;14.90;8.00;;;;;;;0.48;nan;99346.31;4979384;28;20256;-83
2024/01/19 01:14:42;;;;;;;14.43;7.47;;;;;;;0.44;nan;99348.13;4978348;28;21107;-82
2024/01/19 01:17:08;;;;;;;14.57;8.10;;;;;;;0.42;nan;99360.25;4977241;28;20218;-82
2024/01/19 01:19:33;;;;;;;16.00;7.60;;;;;;;0.40;nan;99377.50;4976283;28;20232;-82
2024/01/19 01:21:59;;;;;;;14.83;7.83;;;;;;;0.36;nan;99372.47;4976600;28;20761;-82
2024/01/19 01:24:25;;;;;;;13.30;7.50;;;;;;;0.34;nan;99374.25;4980457;28;20735;-82
2024/01/19 01:26:50;;;;;;;14.00;7.10;;;;;;;0.32;nan;99381.19;4978704;28;20307;-82
2024/01/19 01:29:15;;;;;;;16.00;9.00;;;;;;;0.25;nan;99379.66;4978736;28;20236;-82
2024/01/19 01:31:41;;;;;;;12.60;7.77;;;;;;;0.18;nan;99378.94;4983572;28;20213;-83
2024/01/19 01:34:07;;;;;;;17.53;10.17;;;;;;;0.13;nan;99389.38;4982865;28;20207;-82
2024/01/19 01:36:33;;;;;;;18.58;8.60;;;;;;;0.13;nan;99389.38;4981053;28;20225;-83
2024/01/19 01:38:59;;;;;;;19.20;12.00;;;;;;;0.16;nan;99389.34;4981127;28;20452;-83
2024/01/19 01:41:25;;;;;;;14.80;9.80;;;;;;;0.18;nan;99392.72;4982273;28;20218;-83
2024/01/19 01:43:50;;;;;;;17.10;8.67;;;;;;;0.19;nan;99391.00;4984834;28;20206;-83
2024/01/19 01:46:15;;;;;;;15.57;9.23;;;;;;;0.19;nan;99394.44;4984364;28;20487;-81
2024/01/19 01:48:41;;;;;;;13.70;7.63;;;;;;;0.19;nan;99386.69;4985717;28;20318;-83
2024/01/19 01:51:08;;;;;;;12.57;6.80;;;;;;;0.16;nan;99399.66;4984109;28;20203;-82
2024/01/19 01:53:34;;;;;;;12.38;7.45;;;;;;;0.13;nan;99407.47;4987004;28;20212;-82
2024/01/19 01:56:00;;;;;;;15.85;8.95;;;;;;;0.13;nan;99414.38;4985246;28;20769;-84
2024/01/19 01:58:26;;;;;;;21.20;10.70;;;;;;;0.13;nan;99419.53;4987575;28;20309;-85
2024/01/19 02:00:52;;;;;;;15.10;9.40;;;;;;;0.12;nan;99416.13;4986692;28;20221;-83
2024/01/19 02:03:21;;;;;;;17.95;9.50;;;;;;;0.11;nan;99417.00;4983147;28;20631;-83
2024/01/19 02:05:46;;;;;;;14.80;8.50;;;;;;;0.11;nan;99422.19;4985115;28;20251;-85
2024/01/19 02:08:12;;;;;;;14.73;9.70;;;;;;;0.09;nan;99423.94;4985814;28;20483;-83
2024/01/19 02:10:37;;;;;;;15.67;9.00;;;;;;;0.05;nan;99426.63;4987279;28;20231;-82
2024/01/19 02:13:03;;;;;;;16.20;8.07;;;;;;;-0.01;nan;99433.63;4987794;28;20204;-82
2024/01/19 02:15:30;;;;;;;15.15;9.63;;;;;;;-0.05;nan;99442.34;4998796;28;20239;-82
2024/01/19 02:17:56;;;;;;;15.90;8.20;;;;;;;-0.09;nan;99455.34;4981148;28;20276;-81
2024/01/19 02:20:21;;;;;;;11.93;7.70;;;;;;;-0.14;nan;99452.84;4981786;28;20212;-82
2024/01/19 02:22:52;;;;;;;16.17;7.97;;;;;;;-0.18;nan;99455.56;4982014;28;20286;-82
2024/01/19 02:25:18;;;;;;;14.73;8.63;;;;;;;-0.18;nan;99458.16;4982917;28;20200;-82
2024/01/19 02:27:43;;;;;;;16.50;8.20;;;;;;;-0.19;nan;99449.53;4981531;28;20576;-82
2024/01/19 02:30:11;;;;;;;14.70;7.80;;;;;;;-0.19;nan;99452.09;4979746;28;20224;-81
2024/01/19 02:32:36;;;;;;;11.70;7.70;;;;;;;-0.21;nan;99460.81;4981757;28;20223;-82
2024/01/19 02:35:03;;;;;;;15.23;7.93;;;;;;;-0.23;nan;99464.25;4981144;28;20208;-82
2024/01/19 02:37:29;;;;;;;14.75;8.63;;;;;;;-0.24;nan;99465.13;4981145;28;20191;-82
2024/01/19 02:39:54;;;;;;;12.47;7.37;;;;;;;-0.27;nan;99462.63;4982053;28;20637;-82
2024/01/19 02:42:20;;;;;;;12.67;8.60;;;;;;;-0.29;nan;99469.56;4981549;28;20234;-82
2024/01/19 02:44:48;;;;;;;15.00;7.57;;;;;;;-0.32;nan;99472.19;4985739;28;20204;-82
2024/01/19 02:47:13;;;;;;;10.27;8.02;;;;;;;-0.34;nan;99473.97;4983432;28;20200;-83
2024/01/19 02:49:39;;;;;;;11.00;8.20;;;;;;;-0.35;nan;99472.28;4983510;28;20246;-83
2024/01/19 02:52:05;;;;;;;20.40;8.87;;;;;;;-0.35;nan;99477.44;4980548;28;20982;-83
2024/01/19 02:54:31;;;;;;;13.88;7.72;;;;;;;-0.34;nan;99473.13;4978840;28;20283;-83
2024/01/19 02:56:57;;;;;;;13.07;6.75;;;;;;;-0.32;nan;99468.78;4979170;28;20200;-83
2024/01/19 02:59:22;;;;;;;15.90;8.50;;;;;;;-0.33;nan;99464.47;4979292;28;20227;-83
2024/01/19 03:01:48;;;;;;;21.57;8.97;;;;;;;-0.34;nan;99471.38;4980289;28;20204;-83
2024/01/19 03:04:13;;;;;;;13.93;6.83;;;;;;;-0.33;nan;99473.06;4977332;28;20196;-84
2024/01/19 03:06:39;;;;;;;16.00;9.67;;;;;;;-0.32;nan;99469.63;4979254;28;20861;-83
2024/01/19 03:09:05;;;;;;;12.73;7.33;;;;;;;-0.30;nan;99473.03;4979418;28;20200;-85
2024/01/19 03:11:30;;;;;;;14.27;7.87;;;;;;;-0.31;nan;99473.03;4978890;28;20505;-85
2024/01/19 03:13:55;;;;;;;16.20;7.13;;;;;;;-0.34;nan;99468.78;4977015;28;20200;-85
2024/01/19 03:16:21;;;;;;;15.90;8.93;;;;;;;-0.36;nan;99462.81;4978194;28;20211;-85
2024/01/19 03:18:46;;;;;;;11.97;7.50;;;;;;;-0.37;nan;99470.59;4979145;28;20216;-85
2024/01/19 03:21:12;;;;;;;10.00;6.37;;;;;;;-0.37;nan;99471.44;4979639;28;20982;-85
2024/01/19 03:23:38;;;;;;;15.88;9.30;;;;;;;-0.38;nan;99474.91;4979687;28;20199;-84
2024/01/19 03:26:05;;;;;;;11.55;6.13;;;;;;;-0.40;nan;99461.19;4977080;28;20243;-83
2024/01/19 03:28:31;;;;;;;11.80;7.88;;;;;;;-0.43;nan;99474.16;4976494;28;20570;-84
2024/01/19 03:30:56;;;;;;;8.43;6.53;;;;;;;-0.40;nan;99475.84;4978660;28;20199;-85
2024/01/19 03:33:22;;;;;;;9.10;6.87;;;;;;;-0.39;nan;99472.34;4979687;28;20204;-84
2024/01/19 03:35:48;;;;;;;11.87;7.00;;;;;;;-0.38;nan;99485.22;4993069;28;20180;-84
2024/01/19 03:38:14;;;;;;;14.15;8.63;;;;;;;-0.38;nan;99481.78;4977851;28;20543;-85
2024/01/19 03:40:39;;;;;;;16.97;8.17;;;;;;;-0.40;nan;99481.00;4977130;28;20196;-84
2024/01/19 03:43:05;;;;;;;18.17;8.03;;;;;;;-0.43;nan;99484.50;4976868;28;20505;-84
2024/01/19 03:45:30;;;;;;;16.33;7.60;;;;;;;-0.48;nan;99487.16;4978392;28;20883;-84
2024/01/19 03:48:05;;;;;;;11.60;8.20;;;;;;;-0.55;nan;99487.31;4977729;28;20195;-84
2024/01/19 03:50:30;;;;;;;12.32;8.55;;;;;;;-0.58;nan;99484.78;4986946;28;20191;-85
2024/01/19 03:52:55;;;;;;;10.80;7.77;;;;;;;-0.59;nan;99485.69;4988399;28;20689;-85
2024/01/19 03:55:21;;;;;;;11.70;7.53;;;;;;;-0.62;nan;99496.03;4987932;28;20215;-84
2024/01/19 03:57:46;;;;;;;12.07;8.00;;;;;;;-0.67;nan;99494.41;4987871;28;20843;-83
2024/01/19 04:00:12;;;;;;;10.87;7.90;;;;;;;-0.72;nan;99495.38;4986864;28;20283;-86
2024/01/19 04:02:38;;;;;;;11.30;7.10;;;;;;;-0.74;nan;99494.56;4986930;28;20208;-84
2024/01/19 04:05:04;;;;;;;13.83;7.37;;;;;;;-0.74;nan;99491.97;4984095;28;20262;-85
2024/01/19 04:07:30;;;;;;;13.20;7.20;;;;;;;-0.72;nan;99503.97;4987740;28;20180;-87
2024/01/19 04:09:55;;;;;;;16.13;8.47;;;;;;;-0.69;nan;99496.16;4988198;28;20204;-84
2024/01/19 04:12:20;;;;;;;12.20;7.67;;;;;;;-0.65;nan;99503.84;4984590;28;20212;-87
2024/01/19 04:14:47;;;;;;;21.23;9.70;;;;;;;-0.62;nan;99507.22;4986777;28;20210;-86
2024/01/19 04:17:13;;;;;;;12.65;7.75;;;;;;;-0.60;nan;99505.44;4988613;28;20618;-85
2024/01/19 04:19:39;;;;;;;12.50;7.57;;;;;;;-0.59;nan;99502.00;4988156;28;20911;-83
2024/01/19 04:22:05;;;;;;;14.77;8.88;;;;;;;-0.55;nan;99502.78;4986023;28;20455;-84
2024/01/19 04:24:31;;;;;;;16.35;8.43;;;;;;;-0.55;nan;99516.53;4989322;28;20211;-84
2024/01/19 04:26:56;;;;;;;15.30;8.60;;;;;;;-0.56;nan;99508.84;4984677;28;20259;-84
2024/01/19 04:29:22;;;;;;;11.40;8.83;;;;;;;-0.57;nan;99515.69;4976818;28;20230;-82
2024/01/19 04:31:48;;;;;;;15.70;8.40;;;;;;;-0.57;nan;99520.03;4978908;28;20200;-82
2024/01/19 04:34:16;;;;;;;15.93;9.73;;;;;;;-0.57;nan;99520.03;4976943;28;20290;-82
2024/01/19 04:36:41;;;;;;;14.30;8.88;;;;;;;-0.60;nan;99522.66;4979594;28;20203;-84
2024/01/19 04:39:10;;;;;;;14.03;8.57;;;;;;;-0.61;nan;99526.97;4984820;28;20215;-85
2024/01/19 04:41:35;;;;;;;15.32;6.72;;;;;;;-0.62;nan;99524.41;4984144;28;20207;-85
2024/01/19 04:44:00;;;;;;;17.10;9.23;;;;;;;-0.62;nan;99532.16;4983759;28;20204;-85
2024/01/19 04:46:26;;;;;;;9.50;7.63;;;;;;;-0.61;nan;99539.03;4984440;28;20208;-85
2024/01/19 04:48:51;;;;;;;13.10;7.63;;;;;;;-0.60;nan;99538.97;4984527;28;20200;-84
2024/01/19 04:51:31;;;;;;;13.87;8.10;;;;;;;-0.59;nan;99539.88;4984526;28;20699;-85
2024/01/19 04:54:08;;;;;;;14.98;8.60;;;;;;;-0.62;nan;99547.63;4988267;28;20319;-85
2024/01/19 04:56:34;;;;;;;19.80;8.93;;;;;;;-0.63;nan;99562.25;4984441;28;20311;-84
2024/01/19 04:59:00;;;;;;;16.20;8.83;;;;;;;-0.63;nan;99551.94;4983739;28;20471;-86
2024/01/19 05:01:25;;;;;;;15.77;10.52;;;;;;;-0.62;nan;99552.78;4984130;28;20450;-85
2024/01/19 05:03:51;;;;;;;23.83;8.60;;;;;;;-0.59;nan;99552.75;4982170;28;20791;-85
2024/01/19 05:06:16;;;;;;;13.20;8.10;;;;;;;-0.59;nan;99557.91;4985284;28;20505;-85
2024/01/19 05:08:42;;;;;;;15.10;9.40;;;;;;;-0.61;nan;99568.25;4980814;28;20227;-85
2024/01/19 05:11:11;;;;;;;26.30;12.90;;;;;;;-0.58;nan;99575.09;4980343;28;20508;-85
2024/01/19 05:13:36;;;;;;;19.67;12.05;;;;;;;-0.57;nan;99575.03;4978609;28;20278;-85
2024/01/19 05:16:02;;;;;;;19.47;10.07;;;;;;;-0.55;nan;99573.28;4978966;28;20225;-85
2024/01/19 05:18:27;;;;;;;13.80;8.50;;;;;;;-0.57;nan;99576.78;4979185;28;20220;-86
2024/01/19 05:20:53;;;;;;;15.80;10.87;;;;;;;-0.58;nan;99585.41;4983227;28;20390;-86
2024/01/19 05:23:19;;;;;;;18.67;10.80;;;;;;;-0.57;nan;99587.09;4986425;28;20941;-83
2024/01/19 05:25:45;;;;;;;24.23;12.90;;;;;;;-0.53;nan;99599.06;4981056;28;20757;-84
2024/01/19 05:28:10;;;;;;;24.50;11.47;;;;;;;-0.49;nan;99599.00;4981100;28;20299;-84
2024/01/19 05:30:35;;;;;;;17.07;10.03;;;;;;;-0.46;nan;99604.09;4978905;28;20204;-85
2024/01/19 05:33:01;;;;;;;19.23;11.97;;;;;;;-0.53;nan;99611.97;4980945;28;20658;-84
2024/01/19 05:35:26;;;;;;;12.27;7.97;;;;;;;-0.57;nan;99624.06;4980367;28;20212;-84
2024/01/19 05:37:52;;;;;;;14.10;8.80;;;;;;;-0.55;nan;99621.47;4980928;28;20210;-84
2024/01/19 05:40:17;;;;;;;14.37;8.67;;;;;;;-0.51;nan;99633.44;4981331;28;20222;-84
2024/01/19 05:42:43;;;;;;;16.58;11.00;;;;;;;-0.61;nan;99627.59;4981267;28;20207;-84
2024/01/19 05:45:09;;;;;;;10.90;7.00;;;;;;;-0.61;nan;99629.31;4978561;28;20236;-85
2024/01/19 05:47:35;;;;;;;12.67;8.60;;;;;;;-0.60;nan;99628.44;4979171;28;20853;-86
2024/01/19 05:50:00;;;;;;;14.40;10.05;;;;;;;-0.57;nan;99638.69;4978698;28;20258;-84
2024/01/19 05:52:26;;;;;;;14.90;8.10;;;;;;;-0.55;nan;99636.94;4985170;28;20200;-85
2024/01/19 05:54:52;;;;;;;13.48;8.45;;;;;;;-0.50;nan;99640.28;4985252;28;20199;-86
2024/01/19 05:57:17;;;;;;;14.27;9.20;;;;;;;-0.48;nan;99639.38;4983987;28;20246;-85
2024/01/19 05:59:43;;;;;;;16.97;9.37;;;;;;;-0.41;nan;99641.84;4984419;28;20219;-84
2024/01/19 06:02:08;;;;;;;12.87;8.23;;;;;;;-0.38;nan;99645.22;4982343;28;20192;-84
2024/01/19 06:04:37;;;;;;;15.67;9.50;;;;;;;-0.34;nan;99648.59;4981756;28;20462;-84
2024/01/19 06:07:03;;;;;;;11.27;7.82;;;;;;;-0.33;nan;99653.72;4983511;28;20204;-86
2024/01/19 06:09:31;;;;;;;17.50;9.18;;;;;;;-0.28;nan;99664.81;4983958;28;20696;-85
2024/01/19 06:11:59;;;;;;;13.25;8.52;;;;;;;-0.26;nan;99675.97;4984103;28;20680;-85
2024/01/19 06:14:25;;;;;;;9.95;8.73;;;;;;;-0.23;nan;99670.75;4983892;28;20250;-86
2024/01/19 06:16:52;;;;;;;19.30;9.93;;;;;;;-0.19;nan;99675.84;4987297;28;20196;-85
2024/01/19 06:19:17;;;;;;;19.65;10.63;;;;;;;-0.16;nan;99684.41;4987088;28;20226;-87
2024/01/19 06:21:46;;;;;;;22.30;13.33;;;;;;;-0.17;nan;99681.84;4984273;28;20200;-87
2024/01/19 06:24:16;;;;;;;15.48;8.27;;;;;;;-0.17;nan;99689.59;4985204;28;20427;-85
2024/01/19 06:26:46;;;;;;;13.30;7.82;;;;;;;-0.17;nan;99689.59;4984396;28;20196;-86
2024/01/19 06:29:12;;;;;;;13.27;7.82;;;;;;;-0.18;nan;99699.06;4986188;28;20236;-86
2024/01/19 06:31:47;;;;;;;16.40;8.50;;;;;;;-0.23;nan;99704.31;4982609;28;20192;-85
2024/01/19 06:34:14;;;;;;;18.98;9.82;;;;;;;-0.25;nan;99702.63;4985383;28;21120;-85
2024/01/19 06:36:43;;;;;;;15.85;8.43;;;;;;;-0.27;nan;99705.25;4986623;28;20211;-85
2024/01/19 06:39:08;;;;;;;13.27;8.73;;;;;;;-0.29;nan;99719.06;4986632;28;20500;-85
2024/01/19 06:41:34;;;;;;;17.20;10.23;;;;;;;-0.32;nan;99713.97;4985301;28;20219;-85
2024/01/19 06:43:59;;;;;;;12.45;7.68;;;;;;;-0.34;nan;99713.13;4987120;28;20334;-87
2024/01/19 06:46:25;;;;;;;17.53;8.30;;;;;;;-0.34;nan;99713.97;4985614;28;20251;-86
2024/01/19 06:48:50;;;;;;;15.83;8.37;;;;;;;-0.31;nan;99724.25;4985855;28;20211;-86
2024/01/19 06:51:16;;;;;;;8.93;8.03;;;;;;;-0.26;nan;99726.75;4985819;28;20200;-86
2024/01/19 06:53:42;;;;;;;16.55;8.85;;;;;;;-0.21;nan;99727.53;4984814;28;20203;-86
2024/01/19 06:56:08;;;;;;;11.90;8.10;;;;;;;-0.19;nan;99717.16;4983582;28;20198;-86
2024/01/19 06:58:36;;;;;;;15.97;9.07;;;;;;;-0.16;nan;99722.25;4985090;28;20623;-84
2024/01/19 07:01:02;;;;;;;8.65;7.75;;;;;;;-0.15;nan;99729.97;4983606;28;20960;-84
2024/01/19 07:03:28;;;;;;;13.83;8.47;;;;;;;-0.14;nan;99733.41;4984229;28;20326;-85
2024/01/19 07:05:56;;;;;;;12.50;8.90;;;;;;;-0.13;nan;99740.28;4985763;28;20462;-84
2024/01/19 07:08:21;;;;;;;19.20;12.63;;;;;;;-0.12;nan;99744.56;4984489;28;20436;-86
2024/01/19 07:10:48;;;;;;;16.53;12.30;;;;;;;-0.13;nan;99754.06;4985439;28;20217;-86
2024/01/19 07:13:14;;;;;;;13.43;9.95;;;;;;;-0.17;nan;99770.47;4985412;28;20269;-85
2024/01/19 07:15:39;;;;;;;16.60;10.53;;;;;;;-0.18;nan;99770.50;4985327;28;20200;-86
2024/01/19 07:18:04;;;;;;;15.10;8.87;;;;;;;-0.19;nan;99772.22;4984577;28;20218;-84
2024/01/19 07:20:30;;;;;;;12.10;7.67;;;;;;;-0.20;nan;99774.84;4984215;28;20203;-85
2024/01/19 07:22:55;;;;;;;21.17;10.23;;;;;;;-0.23;nan;99776.59;4983856;28;20203;-84
2024/01/19 07:25:20;;;;;;;11.23;7.77;;;;;;;-0.24;nan;99789.53;4985775;28;20206;-85
2024/01/19 07:27:46;;;;;;;15.90;8.67;;;;;;;-0.25;nan;99791.22;4982743;28;20227;-84
2024/01/19 07:30:11;;;;;;;20.90;9.10;;;;;;;-0.25;nan;99800.72;4979123;28;20359;-85
2024/01/19 07:32:37;;;;;;;16.87;11.60;;;;;;;-0.28;nan;99805.94;4976658;28;20200;-85
2024/01/19 07:35:02;;;;;;;13.90;8.63;;;;;;;-0.30;nan;99802.50;4978541;28;20203;-85
2024/01/19 07:37:28;;;;;;;16.87;9.07;;;;;;;-0.31;nan;99806.84;4979314;28;20856;-85
2024/01/19 07:39:53;;;;;;;11.63;9.87;;;;;;;-0.29;nan;99814.56;4980969;28;20218;-84
2024/01/19 07:42:19;;;;;;;17.70;7.70;;;;;;;-0.30;nan;99818.88;4982285;28;20817;-84
2024/01/19 07:44:44;;;;;;;16.23;7.57;;;;;;;-0.28;nan;99832.59;4981115;28;20211;-85
2024/01/19 07:47:10;;;;;;;16.73;8.37;;;;;;;-0.25;nan;99836.84;4985744;28;20210;-85
2024/01/19 07:49:35;;;;;;;13.20;8.03;;;;;;;-0.22;nan;99841.97;4984836;28;20223;-84
2024/01/19 07:52:01;;;;;;;15.93;8.77;;;;;;;-0.20;nan;99850.53;4985321;28;20709;-85
2024/01/19 07:54:29;;;;;;;15.47;8.53;;;;;;;-0.18;nan;99853.13;4983526;28;20229;-85
2024/01/19 07:56:55;;;;;;;14.30;8.30;;;;;;;-0.20;nan;99860.88;4986829;28;20200;-84
2024/01/19 07:59:20;;;;;;;9.23;7.90;;;;;;;-0.16;nan;99869.41;4985785;28;20407;-85
2024/01/19 08:01:46;;;;;;;14.17;7.83;;;;;;;-0.14;nan;99867.66;4985417;28;20443;-84
2024/01/19 08:04:11;;;;;;;11.27;7.77;;;;;;;-0.13;nan;99875.41;4986109;28;20290;-84
2024/01/19 08:06:36;;;;;;;12.80;8.13;;;;;;;-0.11;nan;99880.50;4986462;28;20289;-83
2024/01/19 08:09:02;;;;;;;21.45;13.82;;;;;;;-0.08;nan;99902.00;4985693;28;20776;-84
2024/01/19 08:11:30;;;;;;;15.40;9.60;;;;;;;-0.04;nan;99895.03;4985146;28;20217;-85
2024/01/19 08:13:56;;;;;;;17.63;9.27;;;;;;;-0.02;nan;99901.91;4986603;28;20878;-84
2024/01/19 08:16:21;;;;;;;15.83;9.30;;;;;;;0.01;nan;99903.56;4987106;28;20570;-83
2024/01/19 08:18:47;;;;;;;14.00;8.97;;;;;;;0.06;nan;99906.09;4985303;28;20220;-85
2024/01/19 08:21:12;;;;;;;15.50;9.00;;;;;;;0.10;nan;99910.31;4984985;28;20215;-84
2024/01/19 08:23:38;;;;;;;18.40;9.70;;;;;;;0.14;nan;99910.25;4984040;28;20485;-84
2024/01/19 08:26:08;;;;;;;15.93;10.02;;;;;;;0.17;nan;99912.78;4985838;28;20200;-84
2024/01/19 08:28:33;;;;;;;15.02;10.18;;;;;;;0.21;nan;99914.41;4984763;28;20335;-84
2024/01/19 08:30:59;;;;;;;13.10;10.30;;;;;;;0.24;nan;99907.50;4986630;28;20207;-84
2024/01/19 08:33:25;;;;;;;19.20;10.83;;;;;;;0.27;nan;99912.63;4986331;28;20206;-85
2024/01/19 08:35:58;;;;;;;18.03;9.10;;;;;;;0.31;nan;99919.44;4989535;28;20208;-86
2024/01/19 08:38:24;;;;;;;12.95;9.35;;;;;;;0.36;nan;99917.66;4988145;28;20812;-86
2024/01/19 08:40:50;;;;;;;10.67;6.83;;;;;;;0.38;nan;99931.41;4988345;28;20184;-85
2024/01/19 08:43:15;;;;;;;16.23;10.53;;;;;;;0.39;nan;99943.44;4987575;28;20195;-89
2024/01/19 08:45:40;;;;;;;15.77;10.83;;;;;;;0.38;nan;99944.31;4990418;28;20325;-88
2024/01/19 08:48:09;;;;;;;17.20;9.77;;;;;;;0.40;nan;99947.72;4987762;28;20192;-88
2024/01/19 08:50:34;;;;;;;15.02;9.82;;;;;;;0.44;nan;99952.81;4988175;28;20200;-88
2024/01/19 08:53:02;;;;;;;13.83;10.60;;;;;;;0.48;nan;99963.94;4987147;28;20206;-87
2024/01/19 08:55:28;;;;;;;15.82;10.30;;;;;;;0.51;nan;99963.88;4986733;28;20206;-87
2024/01/19 08:57:54;;;;;;;16.67;10.50;;;;;;;0.55;nan;99965.56;4986840;28;20660;-86
2024/01/19 09:00:20;;;;;;;16.53;10.67;;;;;;;0.62;nan;99967.16;4986185;28;20222;-87
2024/01/19 09:02:49;;;;;;;19.27;10.80;;;;;;;0.66;nan;99968.81;4987794;28;20199;-84
2024/01/19 09:05:15;;;;;;;15.10;9.85;;;;;;;0.66;nan;99970.53;4989635;28;20685;-85
2024/01/19 09:07:40;;;;;;;16.73;11.95;;;;;;;0.66;nan;99973.97;4992429;28;20936;-86
2024/01/19 09:10:09;;;;;;;19.93;9.40;;;;;;;0.70;nan;99984.25;4991641;28;20473;-85
2024/01/19 09:12:34;;;;;;;13.05;8.55;;;;;;;0.70;nan;99981.66;4989696;28;20960;-86
2024/01/19 09:14:59;;;;;;;12.63;9.00;;;;;;;0.71;nan;99992.00;4989738;28;20596;-86
2024/01/19 09:17:25;;;;;;;12.83;9.13;;;;;;;0.74;nan;100001.44;4989965;28;20196;-86
2024/01/19 09:19:51;;;;;;;17.60;10.07;;;;;;;0.76;nan;99995.34;4991741;28;20258;-86
2024/01/19 09:22:20;;;;;;;17.90;10.02;;;;;;;0.80;nan;100001.31;4988758;28;20200;-87
2024/01/19 09:24:46;;;;;;;28.00;12.57;;;;;;;0.83;nan;100002.09;4990690;28;20258;-86
2024/01/19 09:27:11;;;;;;;14.40;8.93;;;;;;;0.85;nan;100015.88;4990822;28;20501;-86
2024/01/19 09:29:37;;;;;;;13.33;9.13;;;;;;;0.90;nan;100022.72;4988072;28;21061;-87
2024/01/19 09:32:02;;;;;;;14.43;8.70;;;;;;;0.92;nan;100020.94;4989691;28;20188;-85
2024/01/19 09:34:28;;;;;;;17.60;9.60;;;;;;;0.95;nan;100026.06;4989244;28;20206;-86
2024/01/19 09:36:54;;;;;;;16.43;11.23;;;;;;;1.00;nan;100032.00;4988785;28;20180;-86
2024/01/19 09:39:21;;;;;;;25.90;12.63;;;;;;;1.05;nan;100035.34;4988474;28;20265;-85
2024/01/19 09:41:51;;;;;;;18.20;12.70;;;;;;;1.11;nan;100040.44;4988054;28;20194;-86
2024/01/19 09:44:20;;;;;;;16.27;10.13;;;;;;;1.16;nan;100045.50;4988049;28;20610;-85
2024/01/19 09:46:51;;;;;;;22.02;11.55;;;;;;;1.21;nan;100057.47;4988362;28;20195;-86
2024/01/19 09:49:26;;;;;;;17.67;9.18;;;;;;;1.26;nan;100060.84;4987959;28;20227;-85
2024/01/19 09:52:02;;;;;;;28.10;15.30;;;;;;;1.30;nan;100065.09;4994104;28;20191;-87
2024/01/19 09:54:34;;;;;;;17.55;10.63;;;;;;;1.35;nan;100065.03;4997908;28;20270;-87
2024/01/19 09:57:01;;;;;;;14.63;10.57;;;;;;;1.41;nan;100061.47;4997476;28;20290;-86
2024/01/19 09:59:31;;;;;;;18.48;10.65;;;;;;;1.42;nan;100056.22;4998364;28;20212;-86
2024/01/19 10:02:00;;;;;;;18.80;10.00;;;;;;;1.51;nan;100055.19;5002238;28;20204;-88
2024/01/19 10:04:29;;;;;;;11.77;9.35;;;;;;;1.48;nan;100053.53;5004259;28;20196;-86
2024/01/19 10:06:55;;;;;;;19.05;9.82;;;;;;;1.65;nan;100067.91;4994459;28;20636;-86
2024/01/19 10:09:22;;;;;;;17.17;10.43;;;;;;;1.80;nan;100069.31;4992566;28;20211;-81
2024/01/19 10:11:53;;;;;;;12.85;10.13;;;;;;;1.99;nan;100066.28;4990207;28;20545;-83
2024/01/19 10:14:20;;;;;;;12.50;9.15;;;;;;;2.45;nan;100067.03;4990929;28;20206;-83
2024/01/19 10:16:50;;;;;;;19.67;10.48;;;;;;;3.13;nan;100068.81;4991720;28;20203;-84
2024/01/19 10:19:22;;;;;;;8.77;7.90;;;;;;;3.67;nan;100070.84;4989613;28;20224;-83
2024/01/19 10:21:50;;;;;;;14.82;8.30;;;;;;;3.98;nan;100054.38;4989771;28;20223;-82
2024/01/19 10:24:20;;;;;;;8.73;7.80;;;;;;;4.03;nan;100052.50;5005139;28;20527;-83
2024/01/19 10:26:53;;;;;;;12.38;8.43;;;;;;;3.98;nan;100059.56;4989695;28;20784;-82
2024/01/19 10:29:22;;;;;;;13.90;8.70;;;;;;;3.95;nan;100064.88;4989240;28;20215;-83
2024/01/19 10:31:50;;;;;;;10.70;7.53;;;;;;;3.94;nan;100064.03;4988235;28;20204;-85
2024/01/19 10:34:19;;;;;;;13.18;8.30;;;;;;;3.92;nan;100067.56;4989360;28;20208;-84
2024/01/19 10:36:46;;;;;;;13.50;8.63;;;;;;;3.92;nan;100065.81;4988582;28;20211;-87
2024/01/19 10:39:22;;;;;;;15.13;10.38;;;;;;;4.01;nan;100069.88;4986596;28;20552;-85
2024/01/19 10:41:49;;;;;;;13.57;8.80;;;;;;;3.90;nan;100066.75;4988602;28;20191;-84
2024/01/19 10:44:21;;;;;;;11.02;8.70;;;;;;;3.93;nan;100074.44;4989087;28;20204;-86
2024/01/19 10:46:49;;;;;;;13.88;7.57;;;;;;;3.88;nan;100064.19;4988359;28;20298;-88
2024/01/19 10:49:18;;;;;;;11.90;7.70;;;;;;;3.79;nan;100071.41;4984228;28;20203;-88
2024/01/19 10:51:45;;;;;;;16.00;8.65;;;;;;;3.48;nan;100056.66;4984510;28;20204;-85
2024/01/19 10:54:23;;;;;;;15.30;8.80;;;;;;;3.39;nan;100064.72;4986762;28;20319;-85
2024/01/19 10:57:06;;;;;;;13.50;6.60;;;;;;;3.25;nan;100063.31;4988382;28;20207;-85
2024/01/19 10:59:32;;;;;;;12.77;6.68;;;;;;;3.20;nan;100066.94;4986244;28;20495;-85
2024/01/19 11:01:59;;;;;;;11.70;8.03;;;;;;;3.10;nan;100068.91;4986966;28;20825;-85
2024/01/19 11:04:26;;;;;;;12.88;7.63;;;;;;;3.03;nan;100076.00;4988504;28;20461;-85
2024/01/19 11:06:51;;;;;;;13.15;7.40;;;;;;;2.96;nan;100076.19;4986678;28;20274;-84
2024/01/19 11:09:17;;;;;;;9.63;7.37;;;;;;;2.76;nan;100080.13;4985905;28;20250;-85
2024/01/19 11:12:00;;;;;;;17.33;9.30;;;;;;;2.75;nan;100080.16;4987393;28;20199;-87
2024/01/19 11:14:32;;;;;;;7.28;5.50;;;;;;;2.83;nan;100081.66;4985667;28;20188;-85
2024/01/19 11:16:58;;;;;;;11.73;6.13;;;;;;;2.94;nan;100085.75;4985760;28;20172;-87
2024/01/19 11:19:24;;;;;;;8.93;5.30;;;;;;;2.97;nan;100083.97;4982288;28;21553;-87
2024/01/19 11:21:53;;;;;;;8.73;6.28;;;;;;;3.00;nan;100091.66;4987200;28;20763;-86
2024/01/19 11:24:24;;;;;;;10.25;5.25;;;;;;;3.04;nan;100090.69;4988678;28;20238;-87
2024/01/19 11:27:04;;;;;;;9.93;5.65;;;;;;;2.93;nan;100084.91;4987666;28;20204;-87
2024/01/19 11:29:33;;;;;;;8.68;6.22;;;;;;;2.75;nan;100090.53;4988853;28;20282;-87
2024/01/19 11:32:00;;;;;;;7.55;4.65;;;;;;;2.72;nan;100093.22;4986656;28;20204;-87
2024/01/19 11:34:39;;;;;;;8.35;5.28;;;;;;;2.88;nan;100090.19;4986487;28;20200;-88
2024/01/19 11:37:04;;;;;;;8.32;5.20;;;;;;;2.88;nan;100079.81;4986815;28;20203;-87
2024/01/19 11:39:43;;;;;;;10.83;6.40;;;;;;;3.06;nan;100085.47;4983506;28;20441;-87
2024/01/19 11:42:29;;;;;;;9.68;4.53;;;;;;;3.12;nan;100081.84;4984970;28;20283;-86